Ambrosia Lake, New Mexico
Current Conditions -  °F | °C
As of 9:56 AM on Saturday 25 Oct 2014 (Local Time) from KGNT Reporting Station
Clear Clear  
Wind Chill: 52°   Ceiling: Unl
Heat Index: 52°   Visibility: 10mi
Dew Point: 28°   Wind: 6mph
Humidity: 41%   Direction: 340°NNW
Pressure: 30.42"   Gusts: NA
Location:  35.2644°N, 107.733°W
Report Text: KGNT 251556Z AUTO 34005KT 10SM CLR 11/M02 A3042 RMK AO2
Loading
Personal Weather Stations






























Interactive Weather Map
Tropical Storm Tracking
New forecast layout! Learn more

10-Day Weather Forecast

Advertisements
Track Severe Weather on mobile